Time;durP1;ratioP1;P1;durP2;ratioP2;P2;SDS_P1;SDS_P2;PMS_P1;PMS_P2;Temp;Humidity;BMP_temperature;BMP_pressure;BME280_temperature;BME280_humidity;BME280_pressure;Samples;Min_cycle;Max_cycle;Signal;HPM_P1;HPM_P2
2022/01/07 00:01:23;;;;;;;9.53;4.53;;;-0.20;99.90;;;;;;5069792;28;20195;-69
2022/01/07 00:03:49;;;;;;;11.13;5.10;;;-0.30;99.90;;;;;;5073482;28;20697;-69
2022/01/07 00:06:15;;;;;;;9.97;5.00;;;-0.30;99.90;;;;;;5073965;28;20261;-71
2022/01/07 00:08:41;;;;;;;9.20;5.90;;;-0.30;99.90;;;;;;5072560;28;20238;-70
2022/01/07 00:11:06;;;;;;;10.00;4.97;;;-0.30;99.90;;;;;;5073658;28;20704;-71
2022/01/07 00:13:32;;;;;;;8.20;4.53;;;-0.20;99.90;;;;;;5054094;28;20245;-70
2022/01/07 00:15:58;;;;;;;8.23;4.37;;;-0.20;99.90;;;;;;5059142;28;20235;-70
2022/01/07 00:18:23;;;;;;;8.60;6.07;;;-0.30;99.90;;;;;;5064196;28;20196;-70
2022/01/07 00:20:50;;;;;;;13.70;8.30;;;-0.20;99.90;;;;;;5065608;28;20214;-69
2022/01/07 00:23:16;;;;;;;8.90;5.00;;;-0.30;99.90;;;;;;5055483;28;20192;-69
2022/01/07 00:25:45;;;;;;;12.00;5.17;;;-0.20;99.90;;;;;;5060093;28;20241;-68
2022/01/07 00:28:11;;;;;;;12.50;5.13;;;-0.20;99.90;;;;;;5057472;28;20201;-69
2022/01/07 00:30:38;;;;;;;19.30;5.87;;;-0.20;99.90;;;;;;5056264;28;20591;-70
2022/01/07 00:33:07;;;;;;;15.20;5.00;;;-0.10;99.90;;;;;;5079994;28;20699;-68
2022/01/07 00:35:33;;;;;;;8.83;4.80;;;-0.10;99.90;;;;;;5074122;28;20662;-68
2022/01/07 00:37:58;;;;;;;10.33;4.20;;;-0.10;99.90;;;;;;5076205;28;20195;-70
2022/01/07 00:40:25;;;;;;;9.40;4.47;;;-0.20;99.90;;;;;;5076626;28;20225;-70
2022/01/07 00:42:52;;;;;;;7.43;4.33;;;-0.20;99.90;;;;;;5074315;28;21041;-71
2022/01/07 00:45:22;;;;;;;13.60;4.97;;;-0.20;99.90;;;;;;5066088;28;20216;-71
2022/01/07 00:47:48;;;;;;;13.97;5.47;;;-0.20;99.90;;;;;;5059982;28;20662;-70
2022/01/07 00:50:15;;;;;;;12.00;5.20;;;-0.10;99.90;;;;;;5057526;28;20192;-69
2022/01/07 00:52:41;;;;;;;11.60;4.47;;;-0.10;99.90;;;;;;5055470;28;20546;-70
2022/01/07 00:55:08;;;;;;;15.87;5.53;;;-0.20;99.90;;;;;;5057923;28;20701;-68
2022/01/07 00:57:34;;;;;;;8.23;4.47;;;-0.20;99.90;;;;;;5055983;28;20184;-70
2022/01/07 00:59:59;;;;;;;8.30;4.27;;;-0.30;99.90;;;;;;5060263;28;20585;-70
2022/01/07 01:02:25;;;;;;;13.80;4.23;;;-0.20;99.90;;;;;;5059007;28;20187;-70
2022/01/07 01:04:51;;;;;;;10.80;4.53;;;-0.30;99.90;;;;;;5055903;28;20222;-71
2022/01/07 01:07:16;;;;;;;9.47;4.93;;;-0.30;99.90;;;;;;5054290;28;20173;-70
2022/01/07 01:09:43;;;;;;;7.30;4.70;;;-0.30;99.90;;;;;;5055794;28;20610;-69
2022/01/07 01:12:10;;;;;;;10.57;4.33;;;-0.20;99.90;;;;;;5052516;28;20183;-69
2022/01/07 01:14:36;;;;;;;10.10;4.27;;;-0.20;99.90;;;;;;5053580;28;20180;-69
2022/01/07 01:17:02;;;;;;;15.43;5.50;;;-0.20;99.90;;;;;;5053454;28;20231;-70
2022/01/07 01:19:28;;;;;;;9.97;4.67;;;-0.10;99.90;;;;;;5055341;28;20188;-71
2022/01/07 01:21:55;;;;;;;9.80;4.07;;;-0.10;99.90;;;;;;5058700;28;20639;-69
2022/01/07 01:24:20;;;;;;;5.10;4.10;;;-0.20;99.90;;;;;;5055849;28;20196;-68
2022/01/07 01:26:46;;;;;;;9.47;4.30;;;-0.10;99.90;;;;;;5056288;28;20213;-68
2022/01/07 01:29:12;;;;;;;9.37;4.13;;;-0.20;99.90;;;;;;5054993;28;20193;-70
2022/01/07 01:31:37;;;;;;;21.43;4.77;;;-0.20;99.90;;;;;;5053963;28;20924;-69
2022/01/07 01:34:04;;;;;;;8.73;4.07;;;-0.20;99.90;;;;;;5056653;28;20212;-68
2022/01/07 01:36:31;;;;;;;11.47;3.97;;;-0.20;99.90;;;;;;5054566;28;20212;-70
2022/01/07 01:38:56;;;;;;;8.63;3.77;;;-0.10;99.90;;;;;;5056829;28;20670;-69
2022/01/07 01:41:22;;;;;;;10.30;4.80;;;-0.20;99.90;;;;;;5053063;28;20235;-69
2022/01/07 01:43:49;;;;;;;12.03;4.43;;;-0.10;99.90;;;;;;5057118;28;20558;-68
2022/01/07 01:46:18;;;;;;;9.50;3.30;;;-0.10;99.90;;;;;;5055946;28;20310;-70
2022/01/07 01:48:45;;;;;;;13.87;4.60;;;-0.10;99.90;;;;;;5057048;28;20204;-68
2022/01/07 01:51:11;;;;;;;10.10;4.10;;;-0.10;99.90;;;;;;5053169;28;20199;-68
2022/01/07 01:53:38;;;;;;;13.73;4.70;;;-0.10;99.90;;;;;;5055971;28;20191;-68
2022/01/07 01:56:04;;;;;;;10.57;4.00;;;0.00;99.90;;;;;;5053389;28;20225;-68
2022/01/07 01:58:30;;;;;;;10.27;4.33;;;0.00;99.90;;;;;;5056881;28;20222;-74
2022/01/07 02:00:55;;;;;;;9.43;4.50;;;0.00;99.90;;;;;;5055636;28;20204;-61
2022/01/07 02:03:22;;;;;;;10.10;4.83;;;0.00;99.90;;;;;;5055405;28;20553;-61
2022/01/07 02:05:47;;;;;;;14.27;5.27;;;0.00;99.90;;;;;;5056920;28;20207;-61
2022/01/07 02:08:13;;;;;;;10.70;4.17;;;-0.10;99.90;;;;;;5055525;28;20713;-61
2022/01/07 02:10:39;;;;;;;13.37;5.10;;;-0.10;99.90;;;;;;5054564;28;20603;-60
2022/01/07 02:13:04;;;;;;;7.63;4.90;;;-0.20;99.90;;;;;;5055393;28;20602;-61
2022/01/07 02:15:30;;;;;;;8.97;4.70;;;-0.10;99.90;;;;;;5056605;28;20233;-60
2022/01/07 02:17:57;;;;;;;12.13;4.47;;;-0.10;99.90;;;;;;5053086;28;20706;-61
2022/01/07 02:20:25;;;;;;;8.10;5.17;;;-0.20;99.90;;;;;;5054133;28;20674;-61
2022/01/07 02:22:52;;;;;;;13.00;5.60;;;-0.30;99.90;;;;;;5054465;28;20203;-60
2022/01/07 02:25:20;;;;;;;13.57;5.73;;;-0.30;99.90;;;;;;5053122;28;20294;-60
2022/01/07 02:27:47;;;;;;;11.90;5.73;;;-0.30;99.90;;;;;;5055182;28;20278;-61
2022/01/07 02:30:19;;;;;;;10.47;5.13;;;-0.20;99.90;;;;;;5055047;28;20674;-61
2022/01/07 02:32:46;;;;;;;12.37;5.20;;;-0.30;99.90;;;;;;5055669;28;20184;-61
2022/01/07 02:35:12;;;;;;;14.70;6.07;;;-0.40;99.90;;;;;;5055564;28;20249;-61
2022/01/07 02:37:39;;;;;;;11.57;5.23;;;-0.30;99.90;;;;;;5053832;28;20249;-61
2022/01/07 02:40:06;;;;;;;16.13;6.17;;;-0.30;99.90;;;;;;5053461;28;20892;-61
2022/01/07 02:42:32;;;;;;;12.63;5.90;;;-0.30;99.90;;;;;;5055389;28;20191;-61
2022/01/07 02:44:58;;;;;;;12.53;6.97;;;-0.30;99.90;;;;;;5053228;28;20271;-61
2022/01/07 02:47:27;;;;;;;11.30;6.57;;;-0.30;99.90;;;;;;5053384;28;20197;-61
2022/01/07 02:49:53;;;;;;;7.07;5.43;;;-0.30;99.90;;;;;;5052823;28;20601;-61
2022/01/07 02:52:18;;;;;;;9.73;6.17;;;-0.30;99.90;;;;;;5054172;28;20230;-61
2022/01/07 02:54:44;;;;;;;15.67;6.63;;;-0.30;99.90;;;;;;5055668;28;20209;-61
2022/01/07 02:57:09;;;;;;;13.20;7.17;;;-0.20;99.90;;;;;;5054616;28;20174;-61
2022/01/07 02:59:35;;;;;;;11.17;6.37;;;-0.30;99.90;;;;;;5053081;28;20192;-61
2022/01/07 03:02:00;;;;;;;16.37;6.73;;;-0.20;99.90;;;;;;5055201;28;20171;-61
2022/01/07 03:04:27;;;;;;;13.50;6.90;;;-0.20;99.90;;;;;;5053532;28;20577;-61
2022/01/07 03:06:53;;;;;;;9.87;6.47;;;-0.30;99.90;;;;;;5052548;28;20216;-61
2022/01/07 03:09:19;;;;;;;9.00;6.23;;;-0.20;99.90;;;;;;5056252;28;20196;-61
2022/01/07 03:11:45;;;;;;;18.87;6.90;;;-0.30;99.90;;;;;;5053672;28;20705;-61
2022/01/07 03:14:10;;;;;;;12.40;7.00;;;-0.20;99.90;;;;;;5056065;28;20186;-61
2022/01/07 03:16:38;;;;;;;17.83;7.40;;;-0.20;99.90;;;;;;5052045;28;20761;-61
2022/01/07 03:19:04;;;;;;;16.90;5.87;;;-0.30;99.90;;;;;;5053086;28;20193;-61
2022/01/07 03:21:29;;;;;;;12.13;7.27;;;-0.20;99.90;;;;;;5051370;28;20684;-60
2022/01/07 03:23:55;;;;;;;14.97;6.83;;;-0.20;99.90;;;;;;5053583;28;20684;-61
2022/01/07 03:26:20;;;;;;;13.27;7.10;;;-0.30;99.90;;;;;;5052871;28;20285;-61
2022/01/07 03:28:47;;;;;;;14.90;6.73;;;-0.30;99.90;;;;;;5056352;28;20189;-61
2022/01/07 03:31:13;;;;;;;10.00;6.03;;;-0.40;99.90;;;;;;5053337;28;20339;-62
2022/01/07 03:33:39;;;;;;;15.17;6.77;;;-0.40;99.90;;;;;;5051134;28;20198;-61
2022/01/07 03:36:05;;;;;;;16.90;6.77;;;-0.30;99.90;;;;;;5056165;28;20715;-60
2022/01/07 03:38:30;;;;;;;10.53;5.87;;;-0.30;99.90;;;;;;5053016;28;20203;-60
2022/01/07 03:40:56;;;;;;;13.47;5.93;;;-0.30;99.90;;;;;;5052917;28;20690;-60
2022/01/07 03:43:22;;;;;;;9.97;5.50;;;-0.30;99.90;;;;;;5053214;28;20548;-66
2022/01/07 03:45:47;;;;;;;8.20;5.80;;;-0.30;99.90;;;;;;5054030;28;20208;-61
2022/01/07 03:48:13;;;;;;;12.60;6.03;;;-0.30;99.90;;;;;;5054494;28;20557;-61
2022/01/07 03:50:38;;;;;;;8.80;5.60;;;-0.30;99.90;;;;;;5054792;28;20265;-60
2022/01/07 03:53:04;;;;;;;13.37;5.93;;;-0.20;99.90;;;;;;5051677;28;20244;-61
2022/01/07 03:55:30;;;;;;;14.00;6.40;;;-0.20;99.90;;;;;;5055238;28;20260;-60
2022/01/07 03:57:57;;;;;;;10.17;6.00;;;-0.20;99.90;;;;;;5052957;28;20283;-60
2022/01/07 04:00:33;;;;;;;11.67;6.10;;;-0.20;99.90;;;;;;5052371;28;20198;-61
2022/01/07 04:03:05;;;;;;;10.73;5.50;;;-0.20;99.90;;;;;;5050415;28;20204;-61
2022/01/07 04:05:30;;;;;;;8.87;5.90;;;-0.20;99.90;;;;;;5052380;28;20234;-60
2022/01/07 04:07:56;;;;;;;8.73;5.63;;;-0.20;99.90;;;;;;5052903;28;20205;-60
2022/01/07 04:10:22;;;;;;;10.00;4.87;;;-0.20;99.90;;;;;;5051424;28;20196;-61
2022/01/07 04:12:48;;;;;;;10.60;5.40;;;-0.20;99.90;;;;;;5052281;28;20294;-61
2022/01/07 04:15:13;;;;;;;9.43;5.30;;;-0.10;99.90;;;;;;5053857;28;20794;-61
2022/01/07 04:17:50;;;;;;;11.30;6.00;;;-0.10;99.90;;;;;;5054360;28;20227;-61
2022/01/07 04:20:17;;;;;;;12.00;5.47;;;0.00;99.90;;;;;;5054040;28;20457;-61
2022/01/07 04:22:44;;;;;;;11.70;5.53;;;-0.10;99.90;;;;;;5053740;28;20202;-61
2022/01/07 04:25:13;;;;;;;8.30;5.13;;;-0.10;99.90;;;;;;5053716;28;20242;-61
2022/01/07 04:27:39;;;;;;;9.30;6.27;;;0.00;99.90;;;;;;5050458;28;20190;-61
2022/01/07 04:30:05;;;;;;;12.00;6.50;;;0.00;99.90;;;;;;5053459;28;20187;-61
2022/01/07 04:32:31;;;;;;;9.50;5.77;;;0.10;99.90;;;;;;5051723;28;20307;-61
2022/01/07 04:34:57;;;;;;;11.73;5.90;;;0.10;99.90;;;;;;5053508;28;20693;-60
2022/01/07 04:37:22;;;;;;;10.07;5.80;;;0.10;99.90;;;;;;5052434;28;20680;-60
2022/01/07 04:39:48;;;;;;;11.17;6.60;;;0.10;99.90;;;;;;5053051;28;20669;-60
2022/01/07 04:42:13;;;;;;;9.87;5.87;;;0.10;99.90;;;;;;5050538;28;20578;-61
2022/01/07 04:44:41;;;;;;;11.60;5.77;;;0.20;99.90;;;;;;5051967;28;20184;-61
2022/01/07 04:47:10;;;;;;;15.40;6.27;;;0.10;99.90;;;;;;5051708;28;20201;-61
2022/01/07 04:49:36;;;;;;;8.10;5.67;;;0.10;99.90;;;;;;5053104;28;20172;-60
2022/01/07 04:52:03;;;;;;;9.17;5.93;;;0.10;99.90;;;;;;5053456;28;20298;-61
2022/01/07 04:54:29;;;;;;;10.10;5.67;;;0.20;99.90;;;;;;5051987;28;20192;-60
2022/01/07 04:56:55;;;;;;;10.20;5.40;;;0.20;99.90;;;;;;5051455;28;20197;-60
2022/01/07 04:59:20;;;;;;;7.60;5.63;;;0.20;99.90;;;;;;5053056;28;20198;-61
2022/01/07 05:01:47;;;;;;;7.23;5.23;;;0.20;99.90;;;;;;5050640;28;20204;-61
2022/01/07 05:04:13;;;;;;;8.87;5.63;;;0.30;99.90;;;;;;5054739;28;20179;-61
2022/01/07 05:06:45;;;;;;;8.37;5.77;;;0.30;99.90;;;;;;5057381;28;20652;-61
2022/01/07 05:09:18;;;;;;;9.50;5.20;;;0.20;99.90;;;;;;5057401;28;20195;-60
2022/01/07 05:11:49;;;;;;;9.43;5.13;;;0.20;99.90;;;;;;5055906;28;20334;-61
2022/01/07 05:14:15;;;;;;;9.17;6.20;;;0.30;99.90;;;;;;5055841;28;20179;-61
2022/01/07 05:16:41;;;;;;;11.03;5.50;;;0.30;99.90;;;;;;5054850;28;20247;-61
2022/01/07 05:19:07;;;;;;;12.70;5.43;;;0.30;99.90;;;;;;5055474;28;20204;-61
2022/01/07 05:21:33;;;;;;;8.03;4.63;;;0.30;99.90;;;;;;5058077;28;20255;-62
2022/01/07 05:23:59;;;;;;;9.27;5.70;;;0.40;99.90;;;;;;5055792;28;20678;-61
2022/01/07 05:26:25;;;;;;;5.33;4.33;;;0.40;99.90;;;;;;5057035;28;20678;-61
2022/01/07 05:28:50;;;;;;;7.40;5.67;;;0.30;99.90;;;;;;5054803;28;20219;-62
2022/01/07 05:31:17;;;;;;;9.77;5.93;;;0.40;99.90;;;;;;5057037;28;20524;-62
2022/01/07 05:33:43;;;;;;;9.70;5.30;;;0.40;99.90;;;;;;5056061;28;20235;-62
2022/01/07 05:36:08;;;;;;;9.67;5.23;;;0.30;99.90;;;;;;5057457;28;20255;-62
2022/01/07 05:38:34;;;;;;;11.43;5.20;;;0.30;99.90;;;;;;5053467;28;20203;-62
2022/01/07 05:40:59;;;;;;;6.63;5.07;;;0.30;99.90;;;;;;5054601;28;20755;-63
2022/01/07 05:43:26;;;;;;;7.93;5.53;;;0.30;99.90;;;;;;5056344;28;20531;-62
2022/01/07 05:45:52;;;;;;;6.70;4.57;;;0.30;99.90;;;;;;5055882;28;20203;-62
2022/01/07 05:48:17;;;;;;;9.93;5.87;;;0.30;99.90;;;;;;5053708;28;20990;-61
2022/01/07 05:50:43;;;;;;;7.27;5.33;;;0.30;99.90;;;;;;5056201;28;21125;-61
2022/01/07 05:53:08;;;;;;;5.93;4.30;;;0.40;99.90;;;;;;5055100;28;20548;-61
2022/01/07 05:55:34;;;;;;;6.60;4.53;;;0.40;99.90;;;;;;5054533;28;20230;-61
2022/01/07 05:57:59;;;;;;;12.63;4.83;;;0.50;99.90;;;;;;5055155;28;20955;-61
2022/01/07 06:00:25;;;;;;;7.67;4.50;;;0.50;99.90;;;;;;5056681;28;20246;-61
2022/01/07 06:02:51;;;;;;;6.57;5.13;;;0.50;99.90;;;;;;5055145;28;20210;-61
2022/01/07 06:05:16;;;;;;;9.90;4.80;;;0.50;99.90;;;;;;5056219;28;20208;-61
2022/01/07 06:07:41;;;;;;;7.13;4.97;;;0.40;99.90;;;;;;5052280;28;20213;-61
2022/01/07 06:10:08;;;;;;;7.50;4.60;;;0.40;99.90;;;;;;5056175;28;20191;-61
2022/01/07 06:12:34;;;;;;;6.90;4.13;;;0.50;99.90;;;;;;5053518;28;20287;-61
2022/01/07 06:14:59;;;;;;;9.30;5.10;;;0.50;99.90;;;;;;5055606;28;20278;-62
2022/01/07 06:17:25;;;;;;;5.43;4.10;;;0.60;99.90;;;;;;5064022;28;20236;-61
2022/01/07 06:19:51;;;;;;;8.60;4.77;;;0.50;99.90;;;;;;5064059;28;20209;-61
2022/01/07 06:22:17;;;;;;;7.73;4.43;;;0.50;99.90;;;;;;5064719;28;20214;-61
2022/01/07 06:24:42;;;;;;;8.67;4.80;;;0.50;99.90;;;;;;5051165;28;20193;-61
2022/01/07 06:27:08;;;;;;;5.83;4.40;;;0.50;99.90;;;;;;5060436;28;20236;-61
2022/01/07 06:29:34;;;;;;;6.03;4.20;;;0.50;99.90;;;;;;5050394;28;20199;-60
2022/01/07 06:31:59;;;;;;;6.97;4.53;;;0.50;99.90;;;;;;5061445;28;20321;-60
2022/01/07 06:34:25;;;;;;;7.13;4.40;;;0.50;99.90;;;;;;5059067;28;20194;-61
2022/01/07 06:36:51;;;;;;;6.87;4.90;;;0.50;99.90;;;;;;5062612;28;20336;-60
2022/01/07 06:39:19;;;;;;;4.70;3.77;;;0.50;99.90;;;;;;5054510;28;20614;-61
2022/01/07 06:41:46;;;;;;;7.40;5.00;;;0.60;99.90;;;;;;5060791;28;20200;-61
2022/01/07 06:44:13;;;;;;;11.73;4.80;;;0.60;99.90;;;;;;5057238;28;20722;-61
2022/01/07 06:46:38;;;;;;;5.57;5.07;;;0.60;99.90;;;;;;5062062;28;20223;-60
2022/01/07 06:49:04;;;;;;;9.90;4.73;;;0.60;99.90;;;;;;5054284;28;20681;-61
2022/01/07 06:51:31;;;;;;;8.53;4.63;;;0.70;99.90;;;;;;5064865;28;20276;-61
2022/01/07 06:53:56;;;;;;;10.60;5.07;;;0.70;99.90;;;;;;5053515;28;20571;-61
2022/01/07 06:56:22;;;;;;;8.20;4.37;;;0.70;99.90;;;;;;5053248;28;20201;-61
2022/01/07 06:58:47;;;;;;;7.63;3.90;;;0.70;99.90;;;;;;5050889;28;20263;-61
2022/01/07 07:01:13;;;;;;;10.63;4.00;;;0.80;99.90;;;;;;5064714;28;20750;-61
2022/01/07 07:03:40;;;;;;;12.50;4.63;;;0.80;99.90;;;;;;5049170;28;20564;-61
2022/01/07 07:06:06;;;;;;;6.33;4.10;;;0.70;99.90;;;;;;5049298;28;20247;-60
2022/01/07 07:08:31;;;;;;;9.33;4.23;;;0.70;99.90;;;;;;5064284;28;20219;-61
2022/01/07 07:10:57;;;;;;;6.57;3.90;;;0.80;99.90;;;;;;5050666;28;20223;-61
2022/01/07 07:13:22;;;;;;;7.17;4.07;;;0.80;99.90;;;;;;5065144;28;20202;-60
2022/01/07 07:15:48;;;;;;;8.57;4.33;;;0.80;99.90;;;;;;5056875;28;20281;-61
2022/01/07 07:18:14;;;;;;;7.33;4.73;;;0.80;99.90;;;;;;5062561;28;20203;-61
2022/01/07 07:20:40;;;;;;;7.33;4.90;;;0.80;99.90;;;;;;5061752;28;20289;-61
2022/01/07 07:23:05;;;;;;;6.40;4.13;;;0.70;99.90;;;;;;5064422;28;20302;-60
2022/01/07 07:25:31;;;;;;;6.23;4.87;;;0.80;99.90;;;;;;5052992;28;20217;-60
2022/01/07 07:27:57;;;;;;;6.60;4.33;;;0.80;99.90;;;;;;5063348;28;20613;-60
2022/01/07 07:30:22;;;;;;;5.57;3.80;;;0.80;99.90;;;;;;5054433;28;20217;-60
2022/01/07 07:32:50;;;;;;;7.20;4.47;;;0.80;99.90;;;;;;5063557;28;20197;-60
2022/01/07 07:37:41;;;;;;;8.67;5.00;;;0.90;99.90;;;;;;5059392;28;20197;-60
2022/01/07 07:40:07;;;;;;;14.30;4.53;;;1.00;99.90;;;;;;5062439;28;20200;-60
2022/01/07 07:42:33;;;;;;;12.67;5.43;;;1.00;99.90;;;;;;5052641;28;20262;-60
2022/01/07 07:44:59;;;;;;;9.87;4.77;;;0.90;99.90;;;;;;5060438;28;20698;-60
2022/01/07 07:47:24;;;;;;;10.87;4.30;;;1.00;99.90;;;;;;5053026;28;20233;-60
2022/01/07 07:49:50;;;;;;;10.07;4.77;;;1.00;99.90;;;;;;5058978;28;20188;-60
2022/01/07 07:52:15;;;;;;;10.93;5.00;;;1.00;99.90;;;;;;5055799;28;20400;-60
2022/01/07 07:54:41;;;;;;;10.83;4.83;;;0.90;99.90;;;;;;5059593;28;20192;-60
2022/01/07 07:57:07;;;;;;;6.93;4.83;;;1.00;99.90;;;;;;5048904;28;20506;-60
2022/01/07 07:59:32;;;;;;;8.37;4.47;;;1.00;99.90;;;;;;5060418;28;20200;-61
2022/01/07 08:01:58;;;;;;;7.70;4.30;;;1.10;99.90;;;;;;5059386;28;20695;-60
2022/01/07 08:04:23;;;;;;;10.57;4.63;;;1.20;99.90;;;;;;5062278;28;20984;-62
2022/01/07 08:06:50;;;;;;;6.47;4.10;;;1.20;99.90;;;;;;5044213;28;20225;-60
2022/01/07 08:09:15;;;;;;;9.73;4.50;;;1.20;99.90;;;;;;5063472;28;20189;-61
2022/01/07 08:11:49;;;;;;;10.03;4.27;;;1.20;99.90;;;;;;5055862;28;20746;-61
2022/01/07 08:17:01;;;;;;;8.93;4.40;;;1.20;99.90;;;;;;5048720;28;20614;-61
2022/01/07 08:19:26;;;;;;;6.17;4.73;;;1.30;99.90;;;;;;5061395;28;20196;-61
2022/01/07 08:21:51;;;;;;;9.23;4.50;;;1.30;99.90;;;;;;5053783;28;20196;-61
2022/01/07 08:24:17;;;;;;;7.53;4.20;;;1.30;99.90;;;;;;5063545;28;20206;-61
2022/01/07 08:26:43;;;;;;;9.60;4.47;;;1.30;99.90;;;;;;5055050;28;20765;-61
2022/01/07 08:29:11;;;;;;;6.43;3.73;;;1.40;99.90;;;;;;5062993;28;20623;-61
2022/01/07 08:36:49;;;;;;;11.07;4.60;;;1.40;99.90;;;;;;5043483;28;20223;-61
2022/01/07 08:39:14;;;;;;;9.90;3.80;;;1.30;99.90;;;;;;5063882;28;20194;-61
2022/01/07 08:41:40;;;;;;;13.43;4.80;;;1.50;99.90;;;;;;5048552;28;20206;-61
2022/01/07 08:44:06;;;;;;;7.60;3.80;;;1.40;99.90;;;;;;5067621;28;20730;-61
2022/01/07 08:46:32;;;;;;;12.20;4.97;;;1.40;99.90;;;;;;5053747;28;20244;-60
2022/01/07 08:48:58;;;;;;;6.40;4.23;;;1.40;99.90;;;;;;5068068;28;20278;-61
2022/01/07 08:51:24;;;;;;;4.67;3.90;;;1.40;99.90;;;;;;5049171;28;20210;-60
2022/01/07 08:53:49;;;;;;;7.83;3.93;;;1.40;99.90;;;;;;5066952;28;20186;-61
2022/01/07 08:56:18;;;;;;;7.80;3.67;;;1.60;99.90;;;;;;5053389;28;20823;-61
2022/01/07 08:58:44;;;;;;;7.73;4.40;;;1.60;99.90;;;;;;5067754;28;20197;-61
2022/01/07 09:01:09;;;;;;;7.80;4.37;;;1.60;99.90;;;;;;5059429;28;20198;-61
2022/01/07 09:03:35;;;;;;;11.37;4.63;;;1.60;99.90;;;;;;5066539;28;20204;-63
2022/01/07 09:06:00;;;;;;;6.50;3.67;;;1.70;99.90;;;;;;5072306;28;20312;-61
2022/01/07 09:08:26;;;;;;;8.17;4.10;;;1.80;99.90;;;;;;5068112;28;20640;-61
2022/01/07 09:10:52;;;;;;;9.97;3.73;;;1.80;99.90;;;;;;5053826;28;20535;-61
2022/01/07 09:13:20;;;;;;;9.80;4.73;;;1.80;99.90;;;;;;5066861;28;20198;-66
2022/01/07 09:15:45;;;;;;;9.33;4.43;;;1.90;99.90;;;;;;5061753;28;20576;-61
2022/01/07 09:18:11;;;;;;;9.73;4.77;;;1.90;99.90;;;;;;5075570;28;20235;-64
2022/01/07 09:20:44;;;;;;;5.87;4.00;;;1.90;99.90;;;;;;5073870;28;20204;-62
2022/01/07 09:23:11;;;;;;;14.73;4.43;;;2.00;99.90;;;;;;5075103;28;20192;-62
2022/01/07 09:25:37;;;;;;;11.17;4.13;;;2.00;99.90;;;;;;5073571;28;20205;-61
2022/01/07 09:28:05;;;;;;;9.60;4.13;;;1.90;99.90;;;;;;5076698;28;20276;-61
2022/01/07 09:30:30;;;;;;;9.37;4.43;;;1.90;99.90;;;;;;5074294;28;20212;-62
2022/01/07 09:32:56;;;;;;;7.47;4.53;;;2.00;99.90;;;;;;5075786;28;20189;-62
2022/01/07 09:35:22;;;;;;;15.27;4.60;;;2.00;99.90;;;;;;5074092;28;20216;-61
2022/01/07 09:37:50;;;;;;;7.93;5.00;;;2.00;99.90;;;;;;5075863;28;20231;-62
2022/01/07 09:40:16;;;;;;;14.43;4.73;;;2.20;99.90;;;;;;5072569;28;20193;-62
2022/01/07 09:42:58;;;;;;;11.17;5.00;;;2.20;99.90;;;;;;5076567;28;20546;-62
2022/01/07 09:45:25;;;;;;;6.40;4.27;;;2.30;99.90;;;;;;5072428;28;20221;-60
2022/01/07 09:47:52;;;;;;;10.13;5.47;;;2.40;99.90;;;;;;5076883;28;20204;-62
2022/01/07 09:50:18;;;;;;;11.30;4.50;;;2.40;99.90;;;;;;5071941;28;20691;-61
2022/01/07 09:52:43;;;;;;;11.60;4.83;;;2.40;99.90;;;;;;5075643;28;20396;-62
2022/01/07 09:55:09;;;;;;;6.73;3.97;;;2.50;99.90;;;;;;5074491;28;20245;-62
2022/01/07 09:57:35;;;;;;;4.40;3.77;;;2.50;99.90;;;;;;5077547;28;20202;-62
2022/01/07 10:00:01;;;;;;;5.87;4.60;;;2.50;99.90;;;;;;5072592;28;20248;-62
2022/01/07 10:02:26;;;;;;;8.83;4.70;;;2.60;99.90;;;;;;5076585;28;20183;-62
2022/01/07 10:04:52;;;;;;;10.73;4.80;;;2.70;99.90;;;;;;5075132;28;20247;-59
2022/01/07 10:07:21;;;;;;;8.27;4.50;;;2.70;99.90;;;;;;5075365;28;20183;-62
2022/01/07 10:10:14;;;;;;;9.53;4.57;;;2.90;99.90;;;;;;5073969;28;20224;-60
2022/01/07 10:13:04;;;;;;;7.50;5.00;;;3.00;99.90;;;;;;5073518;28;20210;-60
2022/01/07 10:15:32;;;;;;;6.60;4.23;;;3.00;99.90;;;;;;5073180;28;20218;-60
2022/01/07 10:18:06;;;;;;;6.00;4.83;;;3.00;99.90;;;;;;5074222;28;20771;-61
2022/01/07 10:20:41;;;;;;;8.13;3.50;;;3.00;99.90;;;;;;5075812;28;20285;-62
2022/01/07 10:23:13;;;;;;;7.87;4.83;;;3.10;99.90;;;;;;5073379;28;20181;-61
2022/01/07 10:25:42;;;;;;;7.83;4.33;;;3.10;99.90;;;;;;5043139;28;20213;-67
2022/01/07 10:28:15;;;;;;;8.27;4.53;;;3.20;99.90;;;;;;5065838;28;20208;-68
2022/01/07 10:30:44;;;;;;;10.07;5.07;;;3.30;99.90;;;;;;5064267;28;20591;-67
2022/01/07 10:33:28;;;;;;;10.13;4.57;;;3.40;99.90;;;;;;5065936;28;20188;-68
2022/01/07 10:35:56;;;;;;;8.87;4.47;;;3.30;99.90;;;;;;5056055;28;20206;-68
2022/01/07 10:38:25;;;;;;;8.27;5.50;;;3.40;99.90;;;;;;5054036;28;20186;-67
2022/01/07 10:40:52;;;;;;;8.87;3.63;;;3.40;99.90;;;;;;5056846;28;20760;-67
2022/01/07 10:43:24;;;;;;;7.03;4.67;;;3.40;99.90;;;;;;5057288;28;20607;-67
2022/01/07 10:45:58;;;;;;;7.53;4.47;;;3.50;99.90;;;;;;5059930;28;20210;-67
2022/01/07 10:48:51;;;;;;;13.27;5.33;;;3.50;99.90;;;;;;5051626;28;20187;-67
2022/01/07 10:51:23;;;;;;;7.50;4.33;;;3.50;99.90;;;;;;5055996;28;20178;-67
2022/01/07 10:54:05;;;;;;;10.00;4.40;;;3.50;99.90;;;;;;5055662;28;20230;-67
2022/01/07 10:56:35;;;;;;;7.77;4.90;;;3.50;99.90;;;;;;5060486;28;20380;-66
2022/01/07 10:59:06;;;;;;;7.53;4.27;;;3.50;99.90;;;;;;5062680;28;20682;-68
2022/01/07 11:01:36;;;;;;;11.67;5.00;;;3.50;99.90;;;;;;5050037;28;20255;-67
2022/01/07 11:04:05;;;;;;;10.17;4.13;;;3.50;99.90;;;;;;5043790;28;20259;-68
2022/01/07 11:06:31;;;;;;;11.23;4.47;;;3.50;99.90;;;;;;5062300;28;20297;-67
2022/01/07 11:08:57;;;;;;;9.53;5.13;;;3.60;99.90;;;;;;5059714;28;20310;-66
2022/01/07 11:11:25;;;;;;;8.43;4.23;;;3.60;99.90;;;;;;5057309;28;20268;-67
2022/01/07 11:13:52;;;;;;;10.00;4.83;;;3.60;99.90;;;;;;5068199;28;20703;-67
2022/01/07 11:16:18;;;;;;;8.27;4.50;;;3.60;99.90;;;;;;5062460;28;20367;-67
2022/01/07 11:18:46;;;;;;;12.23;4.47;;;3.70;99.90;;;;;;5060924;28;20230;-67
2022/01/07 11:21:12;;;;;;;7.90;5.10;;;3.70;99.90;;;;;;5058060;28;20276;-67
2022/01/07 11:23:38;;;;;;;8.90;4.23;;;3.70;99.90;;;;;;5064637;28;20615;-66
2022/01/07 11:26:10;;;;;;;6.83;4.23;;;3.60;99.90;;;;;;5076520;28;20240;-67
2022/01/07 11:28:37;;;;;;;8.77;4.77;;;3.50;99.90;;;;;;5070677;28;20182;-68
2022/01/07 11:31:11;;;;;;;7.97;4.70;;;3.50;99.90;;;;;;5074914;28;20182;-68
2022/01/07 11:33:36;;;;;;;6.77;4.23;;;3.50;99.90;;;;;;5069424;28;20269;-68
2022/01/07 11:36:02;;;;;;;5.93;4.17;;;3.50;99.90;;;;;;5074206;28;20197;-67
2022/01/07 11:38:32;;;;;;;7.67;4.90;;;3.40;99.90;;;;;;5065538;28;20190;-68
2022/01/07 11:40:58;;;;;;;6.67;4.40;;;3.40;99.90;;;;;;5052858;28;20209;-68
2022/01/07 11:43:31;;;;;;;10.47;5.40;;;3.40;99.90;;;;;;5064566;28;20198;-68
2022/01/07 11:45:58;;;;;;;6.97;4.70;;;3.40;99.90;;;;;;5053653;28;20233;-68
2022/01/07 11:48:27;;;;;;;11.80;5.60;;;3.40;99.90;;;;;;5064092;28;20236;-72
2022/01/07 11:50:56;;;;;;;5.83;4.97;;;3.40;99.90;;;;;;5049822;28;20203;-68
2022/01/07 11:53:23;;;;;;;9.17;5.73;;;3.40;99.90;;;;;;5066790;28;20196;-67
2022/01/07 11:55:51;;;;;;;9.50;5.23;;;3.40;99.90;;;;;;5070723;28;20270;-68
2022/01/07 11:58:18;;;;;;;6.40;4.77;;;3.50;99.90;;;;;;5073288;28;20281;-68
2022/01/07 12:00:51;;;;;;;8.03;4.87;;;3.50;99.90;;;;;;5073421;28;20202;-68
2022/01/07 12:03:40;;;;;;;10.30;5.30;;;3.40;99.90;;;;;;5074801;28;20274;-67
2022/01/07 12:06:24;;;;;;;9.43;5.03;;;3.40;99.90;;;;;;5048472;28;20217;-67
2022/01/07 12:09:11;;;;;;;7.43;5.10;;;3.40;99.90;;;;;;5064324;28;20211;-67
2022/01/07 12:11:52;;;;;;;11.07;5.60;;;3.30;99.90;;;;;;5052639;28;20201;-70
2022/01/07 12:14:20;;;;;;;7.60;5.30;;;3.30;99.90;;;;;;5058164;28;20176;-69
2022/01/07 12:16:49;;;;;;;8.87;5.13;;;3.20;99.90;;;;;;5069001;28;20237;-69
2022/01/07 12:19:21;;;;;;;10.37;5.03;;;3.20;99.90;;;;;;5066466;28;20218;-68
2022/01/07 12:21:55;;;;;;;8.23;5.50;;;3.10;99.90;;;;;;5068535;28;20180;-69
2022/01/07 12:24:23;;;;;;;8.60;5.17;;;3.10;99.90;;;;;;5053614;28;20248;-69
2022/01/07 12:27:09;;;;;;;9.43;5.70;;;3.10;99.90;;;;;;5047700;28;20571;-69
2022/01/07 12:29:37;;;;;;;9.10;6.17;;;3.00;99.90;;;;;;5053954;28;20190;-69
2022/01/07 12:32:05;;;;;;;9.43;5.70;;;3.00;99.90;;;;;;5059768;28;20200;-69
2022/01/07 12:34:33;;;;;;;11.40;6.73;;;3.00;99.90;;;;;;5061968;28;20210;-70
2022/01/07 12:37:01;;;;;;;13.83;6.03;;;2.90;99.90;;;;;;5061669;28;20240;-71
2022/01/07 12:39:29;;;;;;;11.10;6.13;;;3.00;99.90;;;;;;5061480;28;20213;-70
2022/01/07 12:41:56;;;;;;;7.07;5.70;;;3.00;99.90;;;;;;5050756;28;20193;-70
2022/01/07 12:44:22;;;;;;;11.67;5.53;;;3.00;99.90;;;;;;5054417;28;20666;-70
2022/01/07 12:46:54;;;;;;;8.23;5.50;;;3.10;99.90;;;;;;5049650;28;20741;-70
2022/01/07 12:49:30;;;;;;;6.97;5.83;;;3.10;99.90;;;;;;5062461;28;20208;-70
2022/01/07 12:52:01;;;;;;;8.63;6.57;;;3.00;99.90;;;;;;5051325;28;20708;-70
2022/01/07 12:54:26;;;;;;;8.17;6.03;;;3.10;99.90;;;;;;5056954;28;20214;-70
2022/01/07 12:56:52;;;;;;;10.67;6.03;;;3.00;99.90;;;;;;5063342;28;20192;-70
2022/01/07 12:59:18;;;;;;;15.47;7.17;;;3.00;99.90;;;;;;5061905;28;20238;-70
2022/01/07 13:01:45;;;;;;;10.37;5.43;;;3.00;99.90;;;;;;5061096;28;20238;-71